Time;durP1;ratioP1;P1;durP2;ratioP2;P2;SDS_P1;SDS_P2;PMS_P1;PMS_P2;Temp;Humidity;BMP_temperature;BMP_pressure;BME280_temperature;BME280_humidity;BME280_pressure;Samples;Min_cycle;Max_cycle;Signal;HPM_P1;HPM_P2
2023/08/04 00:00:13;;;;;;;14.95;6.60;;;;;;;12.75;nan;101013.75;5024198;28;20024;-79
2023/08/04 00:02:39;;;;;;;12.02;7.07;;;;;;;12.74;nan;101015.50;5012153;28;20038;-79
2023/08/04 00:05:06;;;;;;;13.55;6.38;;;;;;;12.73;nan;101021.66;5018539;28;20033;-79
2023/08/04 00:07:35;;;;;;;16.60;6.97;;;;;;;12.69;nan;101016.53;5018289;28;20065;-79
2023/08/04 00:10:01;;;;;;;14.65;6.32;;;;;;;12.65;nan;101014.03;5026233;28;21277;-79
2023/08/04 00:12:26;;;;;;;14.05;6.72;;;;;;;12.64;nan;101027.16;5020599;28;20496;-79
2023/08/04 00:14:51;;;;;;;11.93;6.25;;;;;;;12.62;nan;101029.81;5028198;28;20377;-79
2023/08/04 00:17:17;;;;;;;12.85;7.10;;;;;;;12.58;nan;101019.47;5019751;28;20132;-78
2023/08/04 00:19:43;;;;;;;14.13;6.70;;;;;;;12.59;nan;101026.44;5018089;28;20029;-79
2023/08/04 00:22:09;;;;;;;11.63;6.68;;;;;;;12.55;nan;101037.88;5022027;28;20544;-79
2023/08/04 00:24:35;;;;;;;15.50;6.75;;;;;;;12.54;nan;101030.94;5018617;28;20109;-79
2023/08/04 00:27:01;;;;;;;16.83;7.03;;;;;;;12.55;nan;101035.25;5025511;28;20436;-79
2023/08/04 00:29:27;;;;;;;13.95;6.57;;;;;;;12.54;nan;101036.16;5013975;28;20394;-79
2023/08/04 00:31:53;;;;;;;15.35;7.57;;;;;;;12.52;nan;101036.19;5022183;28;20044;-79
2023/08/04 00:34:18;;;;;;;14.60;7.25;;;;;;;12.46;nan;101028.53;5013074;28;20381;-79
2023/08/04 00:36:45;;;;;;;17.67;7.40;;;;;;;12.44;nan;101034.72;5018865;28;20025;-78
2023/08/04 00:39:10;;;;;;;14.48;7.15;;;;;;;12.40;nan;101042.63;5022190;28;20025;-79
2023/08/04 00:41:36;;;;;;;22.25;7.63;;;;;;;12.41;nan;101046.97;5020649;28;20404;-78
2023/08/04 00:44:02;;;;;;;15.25;7.90;;;;;;;12.38;nan;101030.50;5020482;28;20493;-79
2023/08/04 00:46:29;;;;;;;21.42;7.93;;;;;;;12.39;nan;101043.53;5017859;28;20084;-79
2023/08/04 00:48:56;;;;;;;18.45;8.75;;;;;;;12.34;nan;101034.97;5015228;28;20061;-79
2023/08/04 00:51:22;;;;;;;17.77;8.00;;;;;;;12.42;nan;101047.81;5010685;28;20030;-78
2023/08/04 00:53:47;;;;;;;18.58;8.57;;;;;;;12.37;nan;101049.72;5019429;28;20032;-78
2023/08/04 00:56:13;;;;;;;18.00;8.52;;;;;;;12.34;nan;101044.56;5025172;28;20117;-78
2023/08/04 00:58:38;;;;;;;21.70;8.00;;;;;;;12.30;nan;101050.78;5022276;28;20045;-78
2023/08/04 01:01:03;;;;;;;18.17;8.32;;;;;;;12.29;nan;101057.75;5020679;28;20033;-78
2023/08/04 01:03:28;;;;;;;16.98;8.45;;;;;;;12.19;nan;101038.84;5024242;28;20063;-78
2023/08/04 01:06:10;;;;;;;18.17;9.02;;;;;;;12.30;nan;101063.84;5019071;28;20026;-78
2023/08/04 01:08:41;;;;;;;18.17;8.57;;;;;;;12.15;nan;101036.34;5025177;28;20026;-78
2023/08/04 01:11:13;;;;;;;18.65;8.65;;;;;;;12.30;nan;101061.25;5026190;28;20109;-78
2023/08/04 01:13:40;;;;;;;17.02;8.65;;;;;;;12.24;nan;101062.25;5026536;28;20029;-78
2023/08/04 01:16:08;;;;;;;18.17;8.07;;;;;;;12.17;nan;101058.09;5019535;28;20024;-79
2023/08/04 01:18:34;;;;;;;17.13;9.13;;;;;;;12.18;nan;101065.03;5025823;28;20037;-79
2023/08/04 01:21:04;;;;;;;16.17;8.10;;;;;;;12.11;nan;101066.09;5024832;28;20410;-78
2023/08/04 01:23:29;;;;;;;15.45;7.80;;;;;;;12.11;nan;101059.09;5022539;28;20109;-78
2023/08/04 01:25:54;;;;;;;15.23;8.02;;;;;;;12.11;nan;101068.72;5024235;28;20525;-78
2023/08/04 01:28:21;;;;;;;21.13;8.82;;;;;;;12.13;nan;101066.88;5026173;28;20136;-78
2023/08/04 01:30:50;;;;;;;16.45;8.45;;;;;;;12.14;nan;101068.63;5025729;28;20029;-79
2023/08/04 01:33:16;;;;;;;18.60;8.30;;;;;;;12.16;nan;101074.66;5025793;28;20029;-79
2023/08/04 01:35:42;;;;;;;15.18;8.10;;;;;;;12.21;nan;101075.41;5025022;28;20108;-78
2023/08/04 01:38:08;;;;;;;14.02;8.57;;;;;;;12.27;nan;101088.31;5023471;28;20476;-79
2023/08/04 01:40:34;;;;;;;17.27;8.20;;;;;;;12.25;nan;101077.03;5019443;28;20076;-78
2023/08/04 01:42:59;;;;;;;17.50;7.97;;;;;;;12.24;nan;101072.72;5027054;28;20112;-78
2023/08/04 01:45:24;;;;;;;15.82;8.35;;;;;;;12.36;nan;101087.19;5025140;28;20025;-78
2023/08/04 01:47:50;;;;;;;15.32;8.15;;;;;;;12.37;nan;101087.16;5025312;28;20044;-79
2023/08/04 01:50:16;;;;;;;19.50;9.02;;;;;;;12.37;nan;101087.16;5023797;28;20373;-79
2023/08/04 01:52:41;;;;;;;15.82;7.82;;;;;;;12.36;nan;101080.22;5023426;28;20105;-78
2023/08/04 01:55:07;;;;;;;17.17;7.97;;;;;;;12.40;nan;101081.84;5021480;28;20037;-79
2023/08/04 01:57:32;;;;;;;17.25;8.80;;;;;;;12.44;nan;101084.38;5020121;28;20381;-78
2023/08/04 01:59:57;;;;;;;21.27;8.48;;;;;;;12.49;nan;101095.56;5024216;28;20029;-78
2023/08/04 02:02:23;;;;;;;15.05;7.78;;;;;;;12.47;nan;101085.16;5017801;28;20022;-78
2023/08/04 02:04:48;;;;;;;14.13;7.90;;;;;;;12.49;nan;101086.00;5022631;28;20113;-78
2023/08/04 02:07:13;;;;;;;11.40;7.28;;;;;;;12.53;nan;101086.75;5020424;28;20034;-78
2023/08/04 02:09:39;;;;;;;13.32;7.57;;;;;;;12.51;nan;101078.09;5026705;28;20052;-79
2023/08/04 02:12:04;;;;;;;14.50;7.70;;;;;;;12.54;nan;101091.94;5023285;28;20041;-79
2023/08/04 02:14:30;;;;;;;17.25;8.13;;;;;;;12.51;nan;101075.47;5025872;28;20083;-79
2023/08/04 02:16:56;;;;;;;15.48;7.88;;;;;;;12.47;nan;101072.09;5019441;28;20503;-78
2023/08/04 02:19:22;;;;;;;15.88;7.68;;;;;;;12.51;nan;101094.63;5027283;28;20025;-79
2023/08/04 02:21:48;;;;;;;30.98;8.23;;;;;;;12.49;nan;101100.78;5020522;28;20470;-79
2023/08/04 02:24:13;;;;;;;14.07;7.72;;;;;;;12.47;nan;101094.75;5022271;28;20034;-79
2023/08/04 02:26:38;;;;;;;15.75;7.70;;;;;;;12.44;nan;101097.47;5023318;28;20096;-78
2023/08/04 02:29:04;;;;;;;15.35;8.02;;;;;;;12.40;nan;101102.78;5017395;28;20041;-78
2023/08/04 02:31:32;;;;;;;14.88;7.20;;;;;;;12.33;nan;101101.22;5024847;28;20041;-79
2023/08/04 02:33:57;;;;;;;14.98;8.20;;;;;;;12.28;nan;101097.88;5025792;28;20124;-79
2023/08/04 02:36:23;;;;;;;17.75;7.63;;;;;;;12.28;nan;101110.06;5026255;28;20141;-79
2023/08/04 02:38:48;;;;;;;17.65;7.85;;;;;;;12.26;nan;101104.03;5025944;28;20112;-79
2023/08/04 02:41:14;;;;;;;15.90;7.57;;;;;;;12.18;nan;101092.00;5025750;28;20064;-79
2023/08/04 02:43:39;;;;;;;14.48;8.43;;;;;;;12.15;nan;101094.72;5024108;28;20053;-78
2023/08/04 02:46:05;;;;;;;15.20;7.65;;;;;;;12.23;nan;101106.72;5024723;28;20048;-78
2023/08/04 02:48:33;;;;;;;13.63;7.80;;;;;;;12.23;nan;101109.31;5017636;28;20026;-78
2023/08/04 02:51:02;;;;;;;19.52;8.02;;;;;;;12.25;nan;101097.94;5021248;28;20108;-78
2023/08/04 02:53:28;;;;;;;15.43;8.15;;;;;;;12.27;nan;101113.59;5020904;28;20539;-78
2023/08/04 02:55:53;;;;;;;17.17;8.00;;;;;;;12.26;nan;101097.06;5025114;28;20038;-78
2023/08/04 02:58:18;;;;;;;15.38;7.72;;;;;;;12.25;nan;101099.69;5023016;28;20049;-79
2023/08/04 03:00:44;;;;;;;20.00;8.20;;;;;;;12.24;nan;101090.16;5023650;28;20033;-79
2023/08/04 03:03:09;;;;;;;13.05;7.55;;;;;;;12.28;nan;101104.84;5021686;28;20025;-79
2023/08/04 03:05:35;;;;;;;16.73;8.27;;;;;;;12.25;nan;101102.31;5020725;28;20038;-78
2023/08/04 03:08:00;;;;;;;16.30;7.60;;;;;;;12.23;nan;101109.31;5024205;28;20034;-79
2023/08/04 03:10:25;;;;;;;18.70;8.25;;;;;;;12.23;nan;101125.00;5020040;28;20485;-78
2023/08/04 03:12:51;;;;;;;16.20;8.25;;;;;;;12.21;nan;101114.59;5021513;28;20036;-78
2023/08/04 03:15:16;;;;;;;14.43;7.63;;;;;;;12.13;nan;101111.31;5026041;28;20071;-78
2023/08/04 03:17:41;;;;;;;15.70;8.07;;;;;;;12.14;nan;101116.53;5020518;28;20129;-78
2023/08/04 03:20:07;;;;;;;15.30;8.05;;;;;;;12.10;nan;101112.28;5023611;28;20022;-78
2023/08/04 03:22:32;;;;;;;32.28;9.10;;;;;;;12.09;nan;101107.94;5021582;28;20152;-78
2023/08/04 03:24:58;;;;;;;15.77;8.00;;;;;;;12.12;nan;101107.00;5028738;28;20021;-78
2023/08/04 03:27:23;;;;;;;16.45;8.07;;;;;;;12.11;nan;101119.22;5020093;28;20029;-79
2023/08/04 03:29:49;;;;;;;17.70;8.93;;;;;;;12.11;nan;101127.06;5025246;28;20472;-78
2023/08/04 03:32:14;;;;;;;15.57;8.40;;;;;;;12.17;nan;101123.44;5023127;28;20045;-79
2023/08/04 03:34:39;;;;;;;15.60;8.00;;;;;;;12.25;nan;101123.22;5023911;28;20029;-78
2023/08/04 03:37:05;;;;;;;14.07;8.35;;;;;;;12.26;nan;101125.81;5024343;28;20490;-78
2023/08/04 03:39:30;;;;;;;16.75;8.10;;;;;;;12.27;nan;101124.06;5023077;28;20488;-78
2023/08/04 03:41:56;;;;;;;16.33;7.97;;;;;;;12.29;nan;101130.09;5024820;28;20149;-79
2023/08/04 03:44:21;;;;;;;13.27;8.32;;;;;;;12.25;nan;101120.63;5024684;28;20481;-79
2023/08/04 03:46:46;;;;;;;15.27;8.20;;;;;;;12.20;nan;101125.97;5020898;28;20021;-79
2023/08/04 03:49:12;;;;;;;21.38;8.90;;;;;;;12.16;nan;101116.47;5017949;28;20477;-79
2023/08/04 03:51:37;;;;;;;18.83;9.18;;;;;;;12.09;nan;101128.84;5018899;28;20096;-79
2023/08/04 03:54:02;;;;;;;17.77;8.70;;;;;;;12.05;nan;101126.34;5022374;28;20519;-79
2023/08/04 03:56:28;;;;;;;16.95;7.95;;;;;;;12.06;nan;101135.91;5021745;28;20038;-79
2023/08/04 03:58:53;;;;;;;17.90;8.38;;;;;;;12.01;nan;101135.16;5021790;28;20420;-78
2023/08/04 04:01:18;;;;;;;17.73;8.38;;;;;;;12.00;nan;101136.94;5018838;28;20013;-78
2023/08/04 04:03:44;;;;;;;16.33;8.30;;;;;;;11.94;nan;101134.47;5021572;28;20090;-78
2023/08/04 04:06:09;;;;;;;16.70;7.63;;;;;;;11.93;nan;101140.56;5023843;28;20029;-78
2023/08/04 04:08:34;;;;;;;17.23;8.00;;;;;;;11.79;nan;101119.13;5021783;28;20040;-78
2023/08/04 04:11:00;;;;;;;16.40;7.97;;;;;;;11.82;nan;101134.72;5021325;28;20049;-78
2023/08/04 04:13:25;;;;;;;15.50;7.97;;;;;;;11.82;nan;101135.56;5020021;28;20649;-79
2023/08/04 04:15:50;;;;;;;18.60;8.65;;;;;;;11.81;nan;101141.69;5020148;28;20026;-79
2023/08/04 04:18:16;;;;;;;13.70;8.68;;;;;;;11.76;nan;101137.47;5022352;28;20524;-79
2023/08/04 04:20:41;;;;;;;16.08;7.57;;;;;;;11.78;nan;101147.00;5021631;28;20426;-79
2023/08/04 04:23:06;;;;;;;15.75;7.45;;;;;;;11.72;nan;101140.16;5020250;28;20389;-79
2023/08/04 04:25:32;;;;;;;19.05;8.50;;;;;;;11.73;nan;101146.22;5020041;28;20113;-78
2023/08/04 04:27:57;;;;;;;17.23;7.93;;;;;;;11.71;nan;101150.66;5016223;28;20049;-79
2023/08/04 04:30:22;;;;;;;17.67;8.38;;;;;;;11.75;nan;101156.66;5027250;28;20030;-79
2023/08/04 04:32:48;;;;;;;17.77;8.70;;;;;;;11.71;nan;101155.88;5016429;28;20042;-79
2023/08/04 04:35:13;;;;;;;15.40;8.30;;;;;;;11.73;nan;101162.75;5020990;28;20086;-79
2023/08/04 04:37:39;;;;;;;14.43;8.25;;;;;;;11.71;nan;101155.88;5017561;28;20025;-79
2023/08/04 04:40:05;;;;;;;19.10;9.55;;;;;;;11.73;nan;101161.91;5025651;28;20477;-79
2023/08/04 04:42:33;;;;;;;15.13;8.35;;;;;;;11.71;nan;101163.72;5021382;28;20486;-79
2023/08/04 04:44:58;;;;;;;15.93;8.52;;;;;;;11.70;nan;101155.00;5012663;28;20025;-79
2023/08/04 04:47:23;;;;;;;13.80;9.35;;;;;;;11.74;nan;101161.03;5020173;28;20028;-78
2023/08/04 04:49:48;;;;;;;15.70;9.18;;;;;;;11.75;nan;101162.75;5012441;28;20489;-79
2023/08/04 04:52:29;;;;;;;20.80;9.20;;;;;;;11.74;nan;101163.63;5023916;28;20029;-78
2023/08/04 04:54:54;;;;;;;15.93;8.90;;;;;;;11.77;nan;101163.56;5018595;28;20034;-79
2023/08/04 04:57:20;;;;;;;16.60;9.07;;;;;;;11.82;nan;101166.06;5018608;28;20075;-79
2023/08/04 04:59:45;;;;;;;18.73;9.40;;;;;;;11.88;nan;101177.25;5020500;28;20030;-78
2023/08/04 05:02:11;;;;;;;17.00;9.25;;;;;;;11.92;nan;101173.66;5016197;28;20149;-79
2023/08/04 05:04:36;;;;;;;18.45;9.57;;;;;;;11.92;nan;101173.66;5017843;28;20477;-79
2023/08/04 05:07:01;;;;;;;17.88;9.75;;;;;;;12.03;nan;101183.00;5020384;28;20028;-79
2023/08/04 05:09:27;;;;;;;21.33;10.07;;;;;;;12.19;nan;101181.75;5016639;28;20017;-79
2023/08/04 05:11:52;;;;;;;18.08;8.57;;;;;;;12.29;nan;101188.44;5024864;28;20465;-79
2023/08/04 05:14:17;;;;;;;17.88;9.20;;;;;;;12.40;nan;101180.34;5022157;28;20029;-79
2023/08/04 05:16:44;;;;;;;22.73;9.90;;;;;;;12.51;nan;101183.53;5015829;28;20022;-78
2023/08/04 05:19:10;;;;;;;19.30;10.00;;;;;;;12.59;nan;101186.84;5020701;28;20025;-78
2023/08/04 05:21:35;;;;;;;19.58;9.50;;;;;;;12.69;nan;101187.44;5021650;28;20025;-79
2023/08/04 05:24:00;;;;;;;22.00;9.70;;;;;;;12.80;nan;101201.09;5015464;28;20022;-78
2023/08/04 05:26:26;;;;;;;23.20;9.65;;;;;;;12.94;nan;101195.47;5023721;28;20507;-79
2023/08/04 05:28:51;;;;;;;15.80;9.55;;;;;;;13.03;nan;101192.59;5021119;28;20112;-78
2023/08/04 05:31:16;;;;;;;19.83;9.70;;;;;;;13.21;nan;101203.44;5019866;28;20077;-78
2023/08/04 05:33:42;;;;;;;17.83;10.00;;;;;;;13.33;nan;101206.59;5022817;28;20076;-78
2023/08/04 05:36:07;;;;;;;19.33;9.95;;;;;;;13.52;nan;101206.91;5021302;28;20026;-78
2023/08/04 05:38:32;;;;;;;23.80;10.07;;;;;;;13.74;nan;101207.13;5020955;28;20062;-79
2023/08/04 05:41:01;;;;;;;17.33;9.90;;;;;;;13.93;nan;101201.31;5022413;28;20037;-78
2023/08/04 05:43:27;;;;;;;21.77;11.00;;;;;;;14.05;nan;101200.91;5020303;28;20079;-79
2023/08/04 05:45:53;;;;;;;18.25;11.07;;;;;;;14.16;nan;101197.94;5017242;28;20026;-79
2023/08/04 05:48:19;;;;;;;21.77;9.40;;;;;;;14.22;nan;101201.25;5020107;28;20452;-78
2023/08/04 05:50:44;;;;;;;12.52;9.05;;;;;;;14.26;nan;101204.63;5025582;28;20069;-79
2023/08/04 05:53:10;;;;;;;15.80;9.20;;;;;;;14.34;nan;101213.09;5022043;28;20030;-79
2023/08/04 05:55:36;;;;;;;17.38;9.98;;;;;;;14.38;nan;101211.22;5023738;28;20065;-78
2023/08/04 05:58:02;;;;;;;17.25;9.48;;;;;;;14.50;nan;101213.44;5026140;28;20021;-78
2023/08/04 06:00:29;;;;;;;13.43;9.02;;;;;;;14.62;nan;101223.56;5025399;28;20096;-79
2023/08/04 06:02:54;;;;;;;15.90;8.52;;;;;;;14.68;nan;101212.84;5017220;28;20037;-78
2023/08/04 06:05:20;;;;;;;18.42;8.40;;;;;;;14.80;nan;101223.81;5021202;28;20381;-79
2023/08/04 06:07:47;;;;;;;19.48;9.38;;;;;;;14.86;nan;101223.59;5021521;28;20379;-79
2023/08/04 06:10:13;;;;;;;14.20;8.90;;;;;;;14.93;nan;101223.31;5026468;28;20366;-79
2023/08/04 06:12:38;;;;;;;13.30;8.63;;;;;;;15.01;nan;101223.06;5023797;28;20076;-78
2023/08/04 06:15:04;;;;;;;14.50;9.15;;;;;;;15.10;nan;101229.75;5024665;28;20032;-78
2023/08/04 06:17:30;;;;;;;15.77;8.93;;;;;;;15.10;nan;101220.09;5021456;28;20033;-78
2023/08/04 06:19:56;;;;;;;13.52;8.30;;;;;;;15.15;nan;101233.06;5015728;28;20469;-79
2023/08/04 06:22:21;;;;;;;13.18;8.73;;;;;;;15.35;nan;101230.56;5027329;28;20065;-78
2023/08/04 06:24:46;;;;;;;17.85;9.23;;;;;;;15.49;nan;101240.56;5020157;28;20025;-78
2023/08/04 06:27:11;;;;;;;17.05;8.45;;;;;;;15.67;nan;101229.38;5026183;28;20476;-78
2023/08/04 06:29:37;;;;;;;15.85;9.02;;;;;;;15.88;nan;101237.34;5022383;28;20025;-79
2023/08/04 06:32:02;;;;;;;13.82;8.80;;;;;;;16.09;nan;101244.41;5017196;28;20046;-77
2023/08/04 06:34:28;;;;;;;15.38;8.27;;;;;;;16.25;nan;101249.03;5017485;28;20041;-78
2023/08/04 06:36:53;;;;;;;15.52;8.63;;;;;;;16.36;nan;101250.31;5017017;28;20466;-79
2023/08/04 06:39:18;;;;;;;16.35;8.30;;;;;;;16.52;nan;101252.31;5019920;28;20022;-80
2023/08/04 06:41:44;;;;;;;13.60;7.63;;;;;;;16.60;nan;101248.41;5023356;28;20048;-79
2023/08/04 06:44:09;;;;;;;14.07;7.75;;;;;;;16.73;nan;101247.91;5024936;28;20036;-79
2023/08/04 06:46:34;;;;;;;12.52;6.80;;;;;;;16.81;nan;101257.25;5022513;28;20026;-79
2023/08/04 06:49:00;;;;;;;12.98;7.13;;;;;;;16.89;nan;101251.63;5025370;28;20021;-79
2023/08/04 06:51:25;;;;;;;12.95;6.57;;;;;;;17.05;nan;101265.00;5022315;28;20039;-79
2023/08/04 06:53:50;;;;;;;15.23;7.82;;;;;;;17.26;nan;101266.66;5025144;28;20053;-79
2023/08/04 06:56:15;;;;;;;16.67;6.90;;;;;;;17.51;nan;101262.94;5024435;28;20480;-79
2023/08/04 06:58:41;;;;;;;9.27;6.10;;;;;;;17.70;nan;101261.16;5020325;28;20029;-79
2023/08/04 07:01:06;;;;;;;8.80;5.68;;;;;;;17.84;nan;101271.09;5024408;28;20079;-79
2023/08/04 07:03:32;;;;;;;9.23;5.60;;;;;;;17.87;nan;101278.88;5024405;28;20029;-79
2023/08/04 07:05:57;;;;;;;10.93;5.90;;;;;;;17.86;nan;101271.88;5024300;28;20022;-79
2023/08/04 07:08:22;;;;;;;15.35;6.78;;;;;;;17.80;nan;101276.59;5018051;28;20093;-79
2023/08/04 07:10:48;;;;;;;9.70;6.00;;;;;;;17.76;nan;101275.84;5018281;28;20117;-79
2023/08/04 07:13:13;;;;;;;9.15;5.30;;;;;;;17.82;nan;101287.91;5014537;28;20116;-79
2023/08/04 07:15:38;;;;;;;9.48;5.13;;;;;;;17.81;nan;101286.22;5021490;28;20026;-79
2023/08/04 07:18:04;;;;;;;7.88;4.93;;;;;;;17.78;nan;101279.28;5020583;28;20040;-79
2023/08/04 07:20:31;;;;;;;10.32;5.88;;;;;;;17.86;nan;101281.59;5027082;28;20021;-81
2023/08/04 07:22:57;;;;;;;8.65;5.43;;;;;;;17.88;nan;101288.47;5010337;28;20493;-79
2023/08/04 07:25:22;;;;;;;6.15;4.82;;;;;;;18.04;nan;101285.13;5022931;28;20029;-80
2023/08/04 07:27:48;;;;;;;9.07;4.93;;;;;;;18.16;nan;101289.81;5021828;28;20032;-80
2023/08/04 07:30:15;;;;;;;10.40;5.60;;;;;;;18.17;nan;101276.53;5025921;28;20095;-80
2023/08/04 07:32:40;;;;;;;8.05;5.30;;;;;;;18.21;nan;101288.69;5012458;28;20070;-80
2023/08/04 07:35:06;;;;;;;10.63;4.47;;;;;;;18.34;nan;101294.19;5021613;28;20069;-80
2023/08/04 07:37:31;;;;;;;8.65;4.30;;;;;;;18.45;nan;101288.41;5020309;28;20450;-79
2023/08/04 07:39:57;;;;;;;10.60;4.22;;;;;;;18.45;nan;101288.41;5020831;28;20068;-80
2023/08/04 07:42:23;;;;;;;9.13;5.03;;;;;;;18.47;nan;101284.78;5019390;28;20022;-80
2023/08/04 07:44:48;;;;;;;6.70;4.13;;;;;;;18.48;nan;101291.75;5011025;28;20429;-80
2023/08/04 07:47:13;;;;;;;7.75;3.90;;;;;;;18.43;nan;101304.31;5025507;28;20112;-79
2023/08/04 07:49:39;;;;;;;6.18;4.15;;;;;;;18.26;nan;101296.38;5015777;28;20025;-79
2023/08/04 07:52:04;;;;;;;6.53;3.95;;;;;;;18.20;nan;101286.09;5019577;28;20057;-79
2023/08/04 07:54:30;;;;;;;5.13;3.80;;;;;;;18.10;nan;101308.59;5021989;28;20542;-80
2023/08/04 07:56:55;;;;;;;7.72;4.10;;;;;;;18.07;nan;101301.66;5011363;28;20068;-80
2023/08/04 07:59:21;;;;;;;7.18;4.03;;;;;;;18.13;nan;101309.28;5025941;28;20487;-78
2023/08/04 08:01:46;;;;;;;7.70;3.65;;;;;;;18.12;nan;101304.09;5018927;28;20030;-78
2023/08/04 08:04:12;;;;;;;7.88;3.90;;;;;;;18.11;nan;101319.03;5020559;28;20026;-78
2023/08/04 08:06:37;;;;;;;6.32;3.72;;;;;;;18.05;nan;101319.38;5017464;28;20484;-78
2023/08/04 08:09:02;;;;;;;6.45;3.78;;;;;;;17.99;nan;101320.50;5027336;28;20087;-78
2023/08/04 08:11:28;;;;;;;5.97;3.10;;;;;;;17.91;nan;101313.84;5019922;28;20026;-78
2023/08/04 08:13:53;;;;;;;5.97;4.18;;;;;;;17.80;nan;101317.00;5022604;28;20076;-79
2023/08/04 08:16:18;;;;;;;6.97;4.40;;;;;;;17.86;nan;101314.09;5021684;28;20108;-77
2023/08/04 08:18:44;;;;;;;7.50;4.20;;;;;;;17.93;nan;101319.94;5017103;28;20083;-77
2023/08/04 08:21:09;;;;;;;8.18;3.92;;;;;;;17.99;nan;101315.22;5020930;28;20038;-78
2023/08/04 08:23:35;;;;;;;7.13;3.88;;;;;;;18.05;nan;101314.09;5019314;28;20119;-78
2023/08/04 08:26:03;;;;;;;7.95;3.92;;;;;;;18.02;nan;101316.88;5014991;28;20029;-77
2023/08/04 08:28:28;;;;;;;9.40;3.47;;;;;;;18.21;nan;101330.03;5011698;28;20075;-77
2023/08/04 08:30:54;;;;;;;3.47;3.10;;;;;;;18.44;nan;101331.56;5017830;28;20108;-78
2023/08/04 08:33:19;;;;;;;6.25;3.10;;;;;;;18.74;nan;101331.00;5015389;28;20718;-77
2023/08/04 08:35:44;;;;;;;5.00;3.20;;;;;;;19.05;nan;101325.91;5008658;28;20108;-76
2023/08/04 08:38:10;;;;;;;4.55;2.92;;;;;;;19.25;nan;101335.44;5020447;28;20038;-77
2023/08/04 08:40:36;;;;;;;4.88;2.95;;;;;;;19.39;nan;101334.72;5022967;28;20048;-78
2023/08/04 08:43:01;;;;;;;5.53;2.67;;;;;;;19.58;nan;101338.09;5021516;28;20377;-77
2023/08/04 08:45:28;;;;;;;5.20;3.10;;;;;;;19.56;nan;101341.78;5020262;28;20041;-77
2023/08/04 08:47:55;;;;;;;7.50;3.67;;;;;;;19.41;nan;101339.00;5021184;28;20042;-77
2023/08/04 08:50:24;;;;;;;7.68;3.58;;;;;;;19.09;nan;101340.66;5009619;28;20026;-78
2023/08/04 08:53:13;;;;;;;6.95;3.20;;;;;;;19.00;nan;101353.47;5026491;28;20018;-78
2023/08/04 08:55:40;;;;;;;6.32;3.30;;;;;;;18.76;nan;101353.78;5002754;28;20393;-77
2023/08/04 08:58:05;;;;;;;7.90;3.13;;;;;;;18.68;nan;101358.56;5013549;28;20033;-75
2023/08/04 09:00:33;;;;;;;5.70;3.47;;;;;;;18.60;nan;101356.28;5013606;28;20022;-77
2023/08/04 09:02:58;;;;;;;7.80;3.05;;;;;;;18.59;nan;101359.88;5015708;28;20022;-77
2023/08/04 09:05:24;;;;;;;5.05;3.22;;;;;;;18.65;nan;101351.66;5007637;28;20060;-78
2023/08/04 09:07:49;;;;;;;6.93;2.95;;;;;;;18.77;nan;101352.88;5019318;28;20026;-78
2023/08/04 09:10:15;;;;;;;6.53;3.00;;;;;;;18.85;nan;101353.31;5020922;28;20033;-77
2023/08/04 09:12:44;;;;;;;3.33;2.67;;;;;;;19.08;nan;101359.25;5018346;28;20030;-77
2023/08/04 09:15:10;;;;;;;4.10;2.85;;;;;;;19.49;nan;101356.22;5024481;28;20496;-77
2023/08/04 09:17:37;;;;;;;5.00;2.92;;;;;;;19.96;nan;101368.75;5007761;28;20065;-76
2023/08/04 09:20:05;;;;;;;3.40;3.10;;;;;;;19.92;nan;101370.72;5028129;28;20374;-77
2023/08/04 09:22:34;;;;;;;3.85;2.97;;;;;;;19.59;nan;101365.41;5020518;28;20109;-77
2023/08/04 09:25:02;;;;;;;4.18;3.00;;;;;;;19.11;nan;101369.66;5031908;28;20068;-77
2023/08/04 09:27:37;;;;;;;5.47;3.47;;;;;;;18.78;nan;101378.34;5015705;28;20576;-76
2023/08/04 09:30:05;;;;;;;5.53;2.78;;;;;;;18.36;nan;101379.44;5023450;28;20042;-79
2023/08/04 09:32:33;;;;;;;4.47;2.67;;;;;;;18.13;nan;101377.88;5012949;28;20037;-78
2023/08/04 09:35:01;;;;;;;4.07;2.95;;;;;;;18.15;nan;101377.84;5023633;28;20091;-76
2023/08/04 09:37:27;;;;;;;6.43;2.80;;;;;;;18.23;nan;101365.97;5025628;28;20244;-76
2023/08/04 09:39:52;;;;;;;3.33;2.90;;;;;;;18.41;nan;101372.19;5011979;28;20785;-76
2023/08/04 09:42:21;;;;;;;5.05;2.60;;;;;;;18.64;nan;101376.34;5021948;28;20068;-76
2023/08/04 09:44:53;;;;;;;3.10;2.30;;;;;;;19.21;nan;101368.25;5017529;28;20520;-76
2023/08/04 09:47:26;;;;;;;8.45;2.85;;;;;;;19.61;nan;101372.31;5021906;28;20030;-75
2023/08/04 09:49:52;;;;;;;3.83;2.65;;;;;;;19.90;nan;101379.69;5018012;28;20092;-76
2023/08/04 09:52:27;;;;;;;3.60;2.45;;;;;;;20.42;nan;101366.22;5027358;28;20468;-76
2023/08/04 09:54:55;;;;;;;5.10;2.17;;;;;;;21.02;nan;101366.28;5008263;28;20495;-76
2023/08/04 09:57:22;;;;;;;2.90;2.22;;;;;;;21.15;nan;101372.56;5014405;28;20030;-76
2023/08/04 09:59:51;;;;;;;2.92;2.20;;;;;;;21.72;nan;101367.38;5022178;28;20500;-76
2023/08/04 10:02:18;;;;;;;5.35;2.10;;;;;;;22.24;nan;101370.41;5022667;28;20022;-77
2023/08/04 10:04:48;;;;;;;4.20;2.53;;;;;;;22.20;nan;101362.63;5022143;28;20026;-76
2023/08/04 10:07:15;;;;;;;4.80;1.75;;;;;;;22.19;nan;101371.53;5022189;28;20026;-76
2023/08/04 10:09:40;;;;;;;6.07;2.88;;;;;;;21.91;nan;101372.41;5016303;28;20017;-76
2023/08/04 10:12:07;;;;;;;4.80;1.95;;;;;;;21.45;nan;101366.41;5027120;28;20056;-76
2023/08/04 10:14:32;;;;;;;8.50;2.20;;;;;;;20.94;nan;101365.91;5022356;28;20029;-76
2023/08/04 10:16:58;;;;;;;4.70;2.25;;;;;;;20.30;nan;101371.25;5016207;28;20141;-76
2023/08/04 10:19:23;;;;;;;4.13;1.88;;;;;;;19.61;nan;101385.53;5027781;28;20028;-76
2023/08/04 10:21:50;;;;;;;3.92;1.92;;;;;;;18.77;nan;101387.22;5022484;28;20033;-76
2023/08/04 10:24:19;;;;;;;4.28;2.05;;;;;;;18.10;nan;101377.19;5016463;28;20029;-76
2023/08/04 10:26:52;;;;;;;5.07;2.22;;;;;;;17.75;nan;101390.16;5025265;28;20104;-76
2023/08/04 10:29:19;;;;;;;2.72;1.80;;;;;;;17.55;nan;101386.63;5022838;28;20424;-76
2023/08/04 10:31:55;;;;;;;4.38;2.10;;;;;;;17.65;nan;101380.94;5018992;28;20469;-76
2023/08/04 10:34:25;;;;;;;4.80;2.28;;;;;;;17.96;nan;101383.94;5023111;28;20045;-76
2023/08/04 10:37:06;;;;;;;4.32;2.35;;;;;;;18.29;nan;101379.81;5025933;28;20103;-76
2023/08/04 10:39:58;;;;;;;5.95;2.47;;;;;;;18.67;nan;101392.06;5016652;28;20105;-76
2023/08/04 10:42:29;;;;;;;5.05;2.50;;;;;;;19.14;nan;101382.72;5009987;28;20034;-76
2023/08/04 10:45:09;;;;;;;3.45;2.30;;;;;;;19.67;nan;101383.56;5011994;28;20029;-76
2023/08/04 10:47:43;;;;;;;3.92;2.30;;;;;;;20.25;nan;101386.53;5025643;28;20040;-76
2023/08/04 10:50:09;;;;;;;4.43;2.40;;;;;;;20.84;nan;101386.78;5020113;28;20042;-76
2023/08/04 10:52:36;;;;;;;6.68;2.65;;;;;;;21.40;nan;101387.06;5019824;28;20022;-78
2023/08/04 10:55:05;;;;;;;2.72;1.70;;;;;;;21.54;nan;101396.84;5006518;28;20056;-82
2023/08/04 10:57:34;;;;;;;3.95;1.90;;;;;;;21.59;nan;101395.63;5020892;28;20026;-77
2023/08/04 11:00:10;;;;;;;6.40;2.03;;;;;;;21.31;nan;101409.63;5016868;28;20029;-79
2023/08/04 11:02:36;;;;;;;5.13;1.95;;;;;;;21.05;nan;101403.22;5016646;28;20033;-77
2023/08/04 11:05:05;;;;;;;4.63;2.13;;;;;;;20.99;nan;101411.53;5019742;28;20052;-77
2023/08/04 11:07:31;;;;;;;3.58;2.22;;;;;;;20.95;nan;101408.19;5015935;28;20022;-77
2023/08/04 11:10:03;;;;;;;3.78;1.95;;;;;;;21.15;nan;101409.69;5029711;28;20029;-77
2023/08/04 11:12:29;;;;;;;5.00;2.08;;;;;;;21.58;nan;101401.00;5021218;28;20397;-77
2023/08/04 11:14:55;;;;;;;9.18;2.50;;;;;;;21.83;nan;101397.69;5018605;28;20038;-77
2023/08/04 11:17:21;;;;;;;3.55;2.10;;;;;;;21.69;nan;101404.72;5013773;28;20029;-77
2023/08/04 11:19:48;;;;;;;5.65;2.42;;;;;;;21.09;nan;101410.06;5017803;28;20233;-76
2023/08/04 11:22:16;;;;;;;3.85;1.77;;;;;;;20.21;nan;101419.44;5017204;28;20061;-78
2023/08/04 11:24:44;;;;;;;3.72;1.77;;;;;;;19.45;nan;101420.81;5008135;28;20034;-77
2023/08/04 11:27:15;;;;;;;2.90;2.00;;;;;;;19.25;nan;101416.53;5021748;28;20382;-78
2023/08/04 11:29:41;;;;;;;3.70;1.98;;;;;;;19.42;nan;101430.63;5015313;28;20033;-77
2023/08/04 11:32:17;;;;;;;4.20;1.80;;;;;;;19.84;nan;101426.69;5016040;28;20069;-77